Terminal Aerodrome Forecast
Issued by NWS Sterling, VA

Current Version | Previous Version | Text Only | Print | Product List | Glossary Off
Versions: 1 2 3 4 5 6 7 8 9 10 11 12 13 14 15 16 17 18 19 20 21 22

962
FTUS41 KLWX 101728
TAFIAD
TAF
KIAD 101728Z 1018/1124 31017G22KT P6SM SCT045
     FM110600 29013G21KT P6SM SCT090=

USA.gov is the U.S. government's official web portal to all federal, state and local government web resources and services.